WMT4RD EDSB-LRTR
Flight info
| Callsign | WMT4RD |
|---|---|
| Flight time | 1h 32m |
| Altitude | 35000 |
| Route | TUBLO1Y TUBLO N850 TRA N491 DEGES N871 XEBIX Z2 UMVEG DCT DIMLO DCT BABIT/N0388F190 Y574 ROMUX |
| Aircraft | A320/M-SDE3FGHIRWY/LB1 |
Departure
| Time | 2026-04-22 21:22 |
|---|---|
| Airport | Karlsruhe Baden-Baden Airport (EDSB) |
Arrival
| Time | 2026-04-22 22:54 |
|---|---|
| Airport | Timișoara Traian Vuia International Airport (LRTR) |
| Time | Latitude | Longitude | Altitude | Speed | Heading |
|---|---|---|---|---|---|
| 2026-04-22 20:28 | 48.78015 | 8.08779 | 411 ft | 0 kts | 159° |
| 2026-04-22 20:29 | 48.78016 | 8.08779 | 412 ft | 0 kts | 159° |
| 2026-04-22 20:29 | 48.78015 | 8.08779 | 413 ft | 0 kts | 159° |
| 2026-04-22 20:59 | 48.78016 | 8.08779 | 413 ft | 0 kts | 159° |
| 2026-04-22 21:13 | 48.78025 | 8.08778 | 412 ft | 4 kts | 96° |
| 2026-04-22 21:13 | 48.78033 | 8.08751 | 405 ft | 4 kts | 137° |
| 2026-04-22 21:13 | 48.78054 | 8.08732 | 410 ft | 4 kts | 179° |
| 2026-04-22 21:14 | 48.78075 | 8.08739 | 412 ft | 1 kts | 210° |
| 2026-04-22 21:14 | 48.78078 | 8.08742 | 410 ft | 0 kts | 210° |
| 2026-04-22 21:17 | 48.78076 | 8.08738 | 411 ft | 1 kts | 221° |
| 2026-04-22 21:17 | 48.78081 | 8.08729 | 411 ft | 2 kts | 305° |
| 2026-04-22 21:17 | 48.78101 | 8.08694 | 412 ft | 7 kts | 310° |
| 2026-04-22 21:17 | 48.78141 | 8.08615 | 412 ft | 12 kts | 302° |
| 2026-04-22 21:18 | 48.78126 | 8.08518 | 412 ft | 12 kts | 207° |
| 2026-04-22 21:18 | 48.78047 | 8.08453 | 412 ft | 14 kts | 213° |
| 2026-04-22 21:18 | 48.77966 | 8.08373 | 412 ft | 12 kts | 213° |
| 2026-04-22 21:18 | 48.77887 | 8.08296 | 408 ft | 14 kts | 212° |
| 2026-04-22 21:19 | 48.77798 | 8.08214 | 409 ft | 16 kts | 210° |
| 2026-04-22 21:19 | 48.77699 | 8.08117 | 412 ft | 18 kts | 212° |
| 2026-04-22 21:19 | 48.77585 | 8.08015 | 412 ft | 20 kts | 212° |
| 2026-04-22 21:19 | 48.77465 | 8.07904 | 412 ft | 19 kts | 211° |
| 2026-04-22 21:20 | 48.77351 | 8.07797 | 408 ft | 16 kts | 210° |
| 2026-04-22 21:20 | 48.77303 | 8.07706 | 412 ft | 11 kts | 282° |
| 2026-04-22 21:20 | 48.77344 | 8.07597 | 413 ft | 13 kts | 300° |
| 2026-04-22 21:20 | 48.77378 | 8.07527 | 413 ft | 4 kts | 343° |
| 2026-04-22 21:21 | 48.77387 | 8.07536 | 413 ft | 0 kts | 34° |
| 2026-04-22 21:21 | 48.77388 | 8.07537 | 413 ft | 1 kts | 34° |
| 2026-04-22 21:21 | 48.77501 | 8.07645 | 413 ft | 52 kts | 32° |
| 2026-04-22 21:21 | 48.77992 | 8.08105 | 408 ft | 112 kts | 32° |
| 2026-04-22 21:22 | 48.78800 | 8.08857 | 466 ft | 152 kts | 31° |
| 2026-04-22 21:22 | 48.79657 | 8.09675 | 1178 ft | 141 kts | 33° |
| 2026-04-22 21:22 | 48.80483 | 8.10478 | 1729 ft | 145 kts | 36° |
| 2026-04-22 21:22 | 48.81392 | 8.11368 | 2026 ft | 165 kts | 38° |
| 2026-04-22 21:23 | 48.82389 | 8.12354 | 2394 ft | 181 kts | 38° |
| 2026-04-22 21:23 | 48.83498 | 8.13421 | 2777 ft | 197 kts | 37° |
| 2026-04-22 21:23 | 48.84731 | 8.14602 | 3095 ft | 221 kts | 38° |
| 2026-04-22 21:23 | 48.86054 | 8.15868 | 3838 ft | 228 kts | 37° |
| 2026-04-22 21:24 | 48.87417 | 8.17133 | 4699 ft | 231 kts | 36° |
| 2026-04-22 21:24 | 48.88743 | 8.18493 | 5562 ft | 230 kts | 47° |
| 2026-04-22 21:24 | 48.89519 | 8.20573 | 6322 ft | 232 kts | 82° |
| 2026-04-22 21:24 | 48.89295 | 8.23005 | 7073 ft | 239 kts | 108° |
| 2026-04-22 21:25 | 48.88697 | 8.25377 | 7863 ft | 242 kts | 110° |
| 2026-04-22 21:25 | 48.87890 | 8.27651 | 8683 ft | 249 kts | 127° |
| 2026-04-22 21:25 | 48.86599 | 8.29449 | 9491 ft | 256 kts | 144° |
| 2026-04-22 21:25 | 48.85001 | 8.30690 | 10288 ft | 261 kts | 154° |
| 2026-04-22 21:26 | 48.83325 | 8.31827 | 10886 ft | 271 kts | 152° |
| 2026-04-22 21:26 | 48.81551 | 8.33118 | 11094 ft | 294 kts | 150° |
| 2026-04-22 21:26 | 48.79655 | 8.34540 | 11285 ft | 317 kts | 150° |
| 2026-04-22 21:26 | 48.77593 | 8.36087 | 11434 ft | 340 kts | 151° |
| 2026-04-22 21:27 | 48.75413 | 8.37706 | 11757 ft | 354 kts | 152° |
| 2026-04-22 21:27 | 48.73176 | 8.39341 | 12347 ft | 359 kts | 152° |
| 2026-04-22 21:27 | 48.70910 | 8.40979 | 12979 ft | 363 kts | 152° |
| 2026-04-22 21:27 | 48.68635 | 8.42612 | 13632 ft | 367 kts | 152° |
| 2026-04-22 21:28 | 48.66311 | 8.44255 | 14259 ft | 372 kts | 155° |
| 2026-04-22 21:28 | 48.63817 | 8.45409 | 14825 ft | 379 kts | 166° |
| 2026-04-22 21:28 | 48.61173 | 8.45773 | 15364 ft | 387 kts | 178° |
| 2026-04-22 21:28 | 48.58483 | 8.45294 | 15897 ft | 393 kts | 189° |
| 2026-04-22 21:29 | 48.55793 | 8.44431 | 16432 ft | 397 kts | 189° |
| 2026-04-22 21:29 | 48.53077 | 8.43559 | 17002 ft | 400 kts | 189° |
| 2026-04-22 21:29 | 48.50347 | 8.42684 | 17555 ft | 403 kts | 189° |
| 2026-04-22 21:29 | 48.47585 | 8.41803 | 18106 ft | 407 kts | 189° |
| 2026-04-22 21:30 | 48.44806 | 8.40921 | 18656 ft | 411 kts | 189° |
| 2026-04-22 21:30 | 48.41999 | 8.40032 | 19139 ft | 414 kts | 189° |
| 2026-04-22 21:30 | 48.39170 | 8.39137 | 19647 ft | 417 kts | 189° |
| 2026-04-22 21:30 | 48.36316 | 8.38234 | 20133 ft | 420 kts | 190° |
| 2026-04-22 21:31 | 48.33440 | 8.37325 | 20642 ft | 423 kts | 190° |
| 2026-04-22 21:31 | 48.30548 | 8.36411 | 21102 ft | 427 kts | 190° |
| 2026-04-22 21:31 | 48.27628 | 8.35490 | 21558 ft | 430 kts | 190° |
| 2026-04-22 21:31 | 48.24689 | 8.34562 | 22004 ft | 433 kts | 191° |
| 2026-04-22 21:32 | 48.21731 | 8.33627 | 22448 ft | 436 kts | 191° |
| 2026-04-22 21:32 | 48.18739 | 8.32811 | 22878 ft | 438 kts | 185° |
| 2026-04-22 21:32 | 48.15688 | 8.32640 | 23298 ft | 439 kts | 175° |
| 2026-04-22 21:32 | 48.12645 | 8.33171 | 23698 ft | 441 kts | 169° |
| 2026-04-22 21:33 | 48.09607 | 8.33922 | 24004 ft | 446 kts | 169° |
| 2026-04-22 21:33 | 48.06532 | 8.34679 | 24285 ft | 450 kts | 169° |
| 2026-04-22 21:33 | 48.03434 | 8.35439 | 24611 ft | 453 kts | 169° |
| 2026-04-22 21:33 | 48.00351 | 8.36190 | 24911 ft | 456 kts | 169° |
| 2026-04-22 21:34 | 47.97169 | 8.36959 | 25264 ft | 458 kts | 169° |
| 2026-04-22 21:34 | 47.94045 | 8.37709 | 25594 ft | 461 kts | 170° |
| 2026-04-22 21:34 | 47.90879 | 8.38464 | 25949 ft | 463 kts | 170° |
| 2026-04-22 21:34 | 47.87681 | 8.39227 | 26210 ft | 468 kts | 170° |
| 2026-04-22 21:35 | 47.84452 | 8.39998 | 26516 ft | 471 kts | 170° |
| 2026-04-22 21:35 | 47.81195 | 8.40776 | 26811 ft | 475 kts | 170° |
| 2026-04-22 21:35 | 47.77930 | 8.41622 | 27107 ft | 478 kts | 166° |
| 2026-04-22 21:35 | 47.74778 | 8.43160 | 27486 ft | 477 kts | 155° |
| 2026-04-22 21:36 | 47.71888 | 8.45540 | 27872 ft | 476 kts | 143° |
| 2026-04-22 21:36 | 47.69358 | 8.48689 | 28339 ft | 471 kts | 132° |
| 2026-04-22 21:36 | 47.67281 | 8.52420 | 28747 ft | 469 kts | 121° |
| 2026-04-22 21:36 | 47.65691 | 8.56630 | 29156 ft | 465 kts | 110° |
| 2026-04-22 21:37 | 47.64523 | 8.61090 | 29564 ft | 464 kts | 107° |
| 2026-04-22 21:37 | 47.63386 | 8.65564 | 30006 ft | 464 kts | 107° |
| 2026-04-22 21:37 | 47.62255 | 8.69982 | 30429 ft | 464 kts | 108° |
| 2026-04-22 21:37 | 47.61088 | 8.74524 | 30820 ft | 464 kts | 108° |
| 2026-04-22 21:38 | 47.59951 | 8.78917 | 31209 ft | 464 kts | 109° |
| 2026-04-22 21:38 | 47.58515 | 8.83204 | 31627 ft | 467 kts | 118° |
| 2026-04-22 21:38 | 47.56696 | 8.87212 | 32036 ft | 468 kts | 122° |
| 2026-04-22 21:38 | 47.54844 | 8.91164 | 32464 ft | 467 kts | 122° |
| 2026-04-22 21:39 | 47.53002 | 8.95108 | 32890 ft | 466 kts | 122° |
| 2026-04-22 21:39 | 47.51161 | 8.99051 | 33322 ft | 465 kts | 122° |
| 2026-04-22 21:39 | 47.49329 | 9.02975 | 33758 ft | 464 kts | 122° |
| 2026-04-22 21:39 | 47.47493 | 9.06901 | 34197 ft | 463 kts | 122° |
| 2026-04-22 21:40 | 47.45659 | 9.10811 | 34566 ft | 462 kts | 122° |
| 2026-04-22 21:40 | 47.43863 | 9.14738 | 34894 ft | 460 kts | 117° |
| 2026-04-22 21:40 | 47.42451 | 9.18954 | 35167 ft | 457 kts | 108° |
| 2026-04-22 21:40 | 47.41548 | 9.23435 | 35247 ft | 453 kts | 97° |
| 2026-04-22 21:41 | 47.41164 | 9.32618 | 35264 ft | 447 kts | 86° |
| 2026-04-22 21:41 | 47.41104 | 9.41815 | 35665 ft | 448 kts | 87° |
| 2026-04-22 21:42 | 47.41057 | 9.46337 | 35998 ft | 447 kts | 87° |
| 2026-04-22 21:42 | 47.41003 | 9.50929 | 36318 ft | 446 kts | 87° |
| 2026-04-22 21:42 | 47.40948 | 9.55515 | 36639 ft | 445 kts | 87° |
| 2026-04-22 21:42 | 47.40895 | 9.60076 | 36918 ft | 445 kts | 87° |
| 2026-04-22 21:43 | 47.40803 | 9.64633 | 37191 ft | 446 kts | 92° |
| 2026-04-22 21:43 | 47.40347 | 9.69195 | 37270 ft | 451 kts | 97° |
| 2026-04-22 21:43 | 47.39158 | 9.78365 | 37266 ft | 456 kts | 98° |
| 2026-04-22 21:44 | 47.37944 | 9.87567 | 37266 ft | 457 kts | 98° |
| 2026-04-22 21:44 | 47.36729 | 9.96772 | 37256 ft | 458 kts | 97° |
| 2026-04-22 21:45 | 47.35506 | 10.06032 | 37259 ft | 460 kts | 98° |
| 2026-04-22 21:45 | 47.34271 | 10.15275 | 37258 ft | 460 kts | 98° |
| 2026-04-22 21:46 | 47.33477 | 10.24521 | 37275 ft | 454 kts | 84° |
| 2026-04-22 21:46 | 47.34628 | 10.33525 | 37289 ft | 444 kts | 66° |
| 2026-04-22 21:47 | 47.37405 | 10.41576 | 37301 ft | 441 kts | 62° |
| 2026-04-22 21:47 | 47.38881 | 10.48808 | 37320 ft | 448 kts | 79° |
| 2026-04-22 21:48 | 47.39039 | 10.53414 | 37324 ft | 452 kts | 90° |
| 2026-04-22 21:48 | 47.38628 | 10.58022 | 37320 ft | 455 kts | 98° |
| 2026-04-22 21:48 | 47.37349 | 10.67177 | 37315 ft | 455 kts | 98° |
| 2026-04-22 21:49 | 47.36071 | 10.76323 | 37319 ft | 456 kts | 98° |
| 2026-04-22 21:49 | 47.34792 | 10.85497 | 37334 ft | 456 kts | 98° |
| 2026-04-22 21:50 | 47.33503 | 10.94656 | 37328 ft | 456 kts | 98° |
| 2026-04-22 21:50 | 47.32209 | 11.03728 | 37322 ft | 455 kts | 98° |
| 2026-04-22 21:51 | 47.30904 | 11.12860 | 37319 ft | 455 kts | 98° |
| 2026-04-22 21:52 | 47.28945 | 11.26558 | 37357 ft | 455 kts | 99° |
| 2026-04-22 21:52 | 47.27620 | 11.35663 | 37353 ft | 455 kts | 99° |
| 2026-04-22 21:53 | 47.26292 | 11.44767 | 37353 ft | 454 kts | 99° |
| 2026-04-22 21:53 | 47.24993 | 11.53862 | 37349 ft | 453 kts | 97° |
| 2026-04-22 21:54 | 47.23972 | 11.62999 | 37343 ft | 452 kts | 95° |
| 2026-04-22 21:54 | 47.23081 | 11.72087 | 37351 ft | 452 kts | 95° |
| 2026-04-22 21:55 | 47.22124 | 11.81224 | 37345 ft | 452 kts | 96° |
| 2026-04-22 21:55 | 47.21103 | 11.90349 | 37343 ft | 452 kts | 96° |
| 2026-04-22 21:56 | 47.20164 | 11.99478 | 37343 ft | 451 kts | 95° |
| 2026-04-22 21:56 | 47.19307 | 12.08610 | 37337 ft | 451 kts | 95° |
| 2026-04-22 21:57 | 47.18444 | 12.17758 | 37339 ft | 451 kts | 95° |
| 2026-04-22 21:57 | 47.17547 | 12.26821 | 37340 ft | 451 kts | 95° |
| 2026-04-22 21:58 | 47.16625 | 12.35947 | 37333 ft | 451 kts | 95° |
| 2026-04-22 21:58 | 47.15703 | 12.45067 | 37361 ft | 451 kts | 95° |
| 2026-04-22 21:59 | 47.14780 | 12.54186 | 37351 ft | 451 kts | 95° |
| 2026-04-22 21:59 | 47.13855 | 12.63288 | 37345 ft | 451 kts | 96° |
| 2026-04-22 22:00 | 47.12916 | 12.72376 | 37344 ft | 450 kts | 96° |
| 2026-04-22 22:00 | 47.11977 | 12.81403 | 37339 ft | 450 kts | 96° |
| 2026-04-22 22:01 | 47.11024 | 12.90474 | 37355 ft | 449 kts | 96° |
| 2026-04-22 22:01 | 47.10072 | 12.99551 | 37345 ft | 449 kts | 96° |
| 2026-04-22 22:02 | 47.09118 | 13.08600 | 37335 ft | 449 kts | 96° |
| 2026-04-22 22:02 | 47.08147 | 13.17632 | 37329 ft | 448 kts | 96° |
| 2026-04-22 22:03 | 47.07171 | 13.26665 | 37349 ft | 448 kts | 96° |
| 2026-04-22 22:03 | 47.06191 | 13.35700 | 37340 ft | 448 kts | 96° |
| 2026-04-22 22:04 | 47.05207 | 13.44655 | 37331 ft | 448 kts | 96° |
| 2026-04-22 22:04 | 47.04206 | 13.53665 | 37329 ft | 448 kts | 96° |
| 2026-04-22 22:05 | 47.03202 | 13.62670 | 37323 ft | 447 kts | 96° |
| 2026-04-22 22:05 | 47.02192 | 13.71673 | 37335 ft | 448 kts | 96° |
| 2026-04-22 22:06 | 47.01178 | 13.80667 | 37326 ft | 447 kts | 96° |
| 2026-04-22 22:06 | 47.00154 | 13.89662 | 37323 ft | 447 kts | 96° |
| 2026-04-22 22:07 | 46.99125 | 13.98641 | 37320 ft | 447 kts | 96° |
| 2026-04-22 22:07 | 46.98090 | 14.07626 | 37321 ft | 447 kts | 96° |
| 2026-04-22 22:08 | 46.97045 | 14.16603 | 37312 ft | 447 kts | 96° |
| 2026-04-22 22:08 | 46.95994 | 14.25579 | 37315 ft | 448 kts | 96° |
| 2026-04-22 22:09 | 46.94944 | 14.34513 | 37314 ft | 448 kts | 96° |
| 2026-04-22 22:09 | 46.93882 | 14.43495 | 37310 ft | 448 kts | 96° |
| 2026-04-22 22:10 | 46.92805 | 14.52489 | 37316 ft | 448 kts | 97° |
| 2026-04-22 22:10 | 46.91718 | 14.61478 | 37313 ft | 448 kts | 97° |
| 2026-04-22 22:11 | 46.90626 | 14.70448 | 37306 ft | 448 kts | 97° |
| 2026-04-22 22:11 | 46.89531 | 14.79408 | 37303 ft | 448 kts | 97° |
| 2026-04-22 22:12 | 46.88432 | 14.88370 | 37312 ft | 448 kts | 97° |
| 2026-04-22 22:12 | 46.87323 | 14.97322 | 37302 ft | 447 kts | 97° |
| 2026-04-22 22:13 | 46.86217 | 15.06206 | 37294 ft | 447 kts | 97° |
| 2026-04-22 22:13 | 46.85094 | 15.15185 | 37291 ft | 447 kts | 97° |
| 2026-04-22 22:14 | 46.83970 | 15.24063 | 37286 ft | 447 kts | 97° |
| 2026-04-22 22:14 | 46.82833 | 15.32987 | 37299 ft | 447 kts | 97° |
| 2026-04-22 22:15 | 46.81690 | 15.41898 | 37290 ft | 447 kts | 97° |
| 2026-04-22 22:15 | 46.80548 | 15.50808 | 37281 ft | 446 kts | 97° |
| 2026-04-22 22:16 | 46.79393 | 15.59718 | 37277 ft | 446 kts | 97° |
| 2026-04-22 22:16 | 46.78237 | 15.68606 | 37280 ft | 446 kts | 97° |
| 2026-04-22 22:17 | 46.77074 | 15.77484 | 37262 ft | 446 kts | 97° |
| 2026-04-22 22:17 | 46.75903 | 15.86363 | 37259 ft | 445 kts | 97° |
| 2026-04-22 22:18 | 46.74726 | 15.95229 | 37247 ft | 445 kts | 98° |
| 2026-04-22 22:18 | 46.73536 | 16.04095 | 37246 ft | 445 kts | 98° |
| 2026-04-22 22:19 | 46.72351 | 16.12906 | 37242 ft | 445 kts | 98° |
| 2026-04-22 22:19 | 46.71154 | 16.21765 | 37247 ft | 445 kts | 98° |
| 2026-04-22 22:20 | 46.69949 | 16.30624 | 37232 ft | 446 kts | 98° |
| 2026-04-22 22:20 | 46.68736 | 16.39462 | 37234 ft | 446 kts | 98° |
| 2026-04-22 22:21 | 46.66701 | 16.48046 | 37239 ft | 452 kts | 109° |
| 2026-04-22 22:21 | 46.64271 | 16.56495 | 37226 ft | 453 kts | 109° |
| 2026-04-22 22:22 | 46.61857 | 16.64920 | 37220 ft | 454 kts | 109° |
| 2026-04-22 22:22 | 46.59420 | 16.73395 | 37225 ft | 454 kts | 109° |
| 2026-04-22 22:23 | 46.56970 | 16.81860 | 37243 ft | 455 kts | 109° |
| 2026-04-22 22:23 | 46.54501 | 16.90370 | 37239 ft | 454 kts | 109° |
| 2026-04-22 22:24 | 46.52059 | 16.98776 | 37227 ft | 455 kts | 109° |
| 2026-04-22 22:24 | 46.49586 | 17.07244 | 37212 ft | 456 kts | 110° |
| 2026-04-22 22:25 | 46.47094 | 17.15715 | 37242 ft | 457 kts | 110° |
| 2026-04-22 22:25 | 46.44591 | 17.24207 | 37227 ft | 457 kts | 110° |
| 2026-04-22 22:26 | 46.42094 | 17.32686 | 37213 ft | 457 kts | 110° |
| 2026-04-22 22:26 | 46.39587 | 17.41167 | 37206 ft | 457 kts | 110° |
| 2026-04-22 22:27 | 46.37087 | 17.49572 | 37213 ft | 457 kts | 110° |
| 2026-04-22 22:27 | 46.34561 | 17.58018 | 37215 ft | 457 kts | 110° |
| 2026-04-22 22:28 | 46.32032 | 17.66468 | 37210 ft | 457 kts | 110° |
| 2026-04-22 22:28 | 46.29501 | 17.74905 | 37202 ft | 457 kts | 110° |
| 2026-04-22 22:29 | 46.26963 | 17.83352 | 37201 ft | 457 kts | 110° |
| 2026-04-22 22:29 | 46.24422 | 17.91757 | 37208 ft | 457 kts | 110° |
| 2026-04-22 22:30 | 46.21869 | 18.00157 | 37202 ft | 457 kts | 110° |
| 2026-04-22 22:30 | 46.19305 | 18.08569 | 37204 ft | 457 kts | 110° |
| 2026-04-22 22:31 | 46.16741 | 18.16966 | 37206 ft | 457 kts | 110° |
| 2026-04-22 22:31 | 46.14185 | 18.25300 | 37220 ft | 457 kts | 110° |
| 2026-04-22 22:32 | 46.11612 | 18.33686 | 37209 ft | 457 kts | 110° |
| 2026-04-22 22:32 | 46.09034 | 18.42059 | 37206 ft | 457 kts | 110° |
| 2026-04-22 22:33 | 46.06444 | 18.50438 | 37194 ft | 458 kts | 111° |
| 2026-04-22 22:33 | 46.03842 | 18.58815 | 37195 ft | 459 kts | 111° |
| 2026-04-22 22:34 | 46.01220 | 18.67219 | 37185 ft | 460 kts | 111° |
| 2026-04-22 22:34 | 45.98602 | 18.75597 | 37173 ft | 460 kts | 111° |
| 2026-04-22 22:35 | 45.95973 | 18.83987 | 37167 ft | 460 kts | 111° |
| 2026-04-22 22:35 | 45.93615 | 18.92495 | 37188 ft | 456 kts | 101° |
| 2026-04-22 22:36 | 45.92839 | 19.01445 | 37177 ft | 451 kts | 90° |
| 2026-04-22 22:36 | 45.92503 | 19.10409 | 37173 ft | 452 kts | 90° |
| 2026-04-22 22:37 | 45.92152 | 19.19422 | 37169 ft | 452 kts | 90° |
| 2026-04-22 22:37 | 45.91795 | 19.28448 | 37169 ft | 453 kts | 90° |
| 2026-04-22 22:38 | 45.91403 | 19.37426 | 37184 ft | 448 kts | 91° |
| 2026-04-22 22:38 | 45.91010 | 19.46344 | 37184 ft | 449 kts | 91° |
| 2026-04-22 22:38 | 45.90880 | 19.49295 | 36990 ft | 448 kts | 91° |
| 2026-04-22 22:39 | 45.90620 | 19.55217 | 36222 ft | 447 kts | 91° |
| 2026-04-22 22:39 | 45.90429 | 19.59659 | 35669 ft | 446 kts | 91° |
| 2026-04-22 22:39 | 45.90240 | 19.64103 | 35127 ft | 444 kts | 91° |
| 2026-04-22 22:39 | 45.90055 | 19.68513 | 34589 ft | 443 kts | 91° |
| 2026-04-22 22:40 | 45.89876 | 19.72931 | 34027 ft | 441 kts | 91° |
| 2026-04-22 22:40 | 45.89696 | 19.77306 | 33374 ft | 440 kts | 91° |
| 2026-04-22 22:40 | 45.89575 | 19.80206 | 32928 ft | 439 kts | 91° |
| 2026-04-22 22:40 | 45.89385 | 19.84576 | 32200 ft | 439 kts | 91° |
| 2026-04-22 22:41 | 45.89187 | 19.88953 | 31472 ft | 437 kts | 91° |
| 2026-04-22 22:41 | 45.88985 | 19.93262 | 30605 ft | 431 kts | 91° |
| 2026-04-22 22:41 | 45.88783 | 19.97548 | 29522 ft | 428 kts | 91° |
| 2026-04-22 22:41 | 45.88582 | 20.01801 | 28380 ft | 429 kts | 91° |
| 2026-04-22 22:42 | 45.88383 | 20.06086 | 27281 ft | 431 kts | 91° |
| 2026-04-22 22:42 | 45.88180 | 20.10367 | 26235 ft | 428 kts | 91° |
| 2026-04-22 22:42 | 45.87976 | 20.14587 | 25218 ft | 419 kts | 91° |
| 2026-04-22 22:42 | 45.87774 | 20.18704 | 24186 ft | 407 kts | 91° |
| 2026-04-22 22:43 | 45.87576 | 20.22715 | 22937 ft | 399 kts | 91° |
| 2026-04-22 22:43 | 45.87383 | 20.26659 | 21619 ft | 393 kts | 91° |
| 2026-04-22 22:43 | 45.87192 | 20.30545 | 20333 ft | 389 kts | 91° |
| 2026-04-22 22:43 | 45.87002 | 20.34397 | 19129 ft | 385 kts | 91° |
| 2026-04-22 22:44 | 45.86816 | 20.38209 | 18116 ft | 378 kts | 91° |
| 2026-04-22 22:44 | 45.86633 | 20.41824 | 17941 ft | 349 kts | 91° |
| 2026-04-22 22:44 | 45.86458 | 20.45163 | 17791 ft | 323 kts | 91° |
| 2026-04-22 22:44 | 45.86292 | 20.48303 | 17382 ft | 309 kts | 90° |
| 2026-04-22 22:45 | 45.86139 | 20.51310 | 16774 ft | 304 kts | 91° |
| 2026-04-22 22:45 | 45.85987 | 20.54324 | 16095 ft | 303 kts | 91° |
| 2026-04-22 22:45 | 45.85834 | 20.57334 | 15435 ft | 301 kts | 91° |
| 2026-04-22 22:45 | 45.85681 | 20.60321 | 14787 ft | 299 kts | 91° |
| 2026-04-22 22:46 | 45.85530 | 20.63293 | 14100 ft | 298 kts | 91° |
| 2026-04-22 22:46 | 45.85510 | 20.66310 | 13167 ft | 303 kts | 86° |
| 2026-04-22 22:46 | 45.85557 | 20.69268 | 12759 ft | 291 kts | 86° |
| 2026-04-22 22:46 | 45.85604 | 20.72156 | 12190 ft | 286 kts | 86° |
| 2026-04-22 22:47 | 45.85647 | 20.74993 | 11610 ft | 283 kts | 86° |
| 2026-04-22 22:47 | 45.85687 | 20.77792 | 11033 ft | 279 kts | 86° |
| 2026-04-22 22:47 | 45.85722 | 20.80557 | 10463 ft | 276 kts | 86° |
| 2026-04-22 22:47 | 45.85755 | 20.83321 | 9741 ft | 278 kts | 86° |
| 2026-04-22 22:48 | 45.85788 | 20.86104 | 8932 ft | 281 kts | 86° |
| 2026-04-22 22:48 | 45.85827 | 20.88919 | 8163 ft | 282 kts | 86° |
| 2026-04-22 22:48 | 45.85871 | 20.91699 | 7474 ft | 281 kts | 86° |
| 2026-04-22 22:48 | 45.85918 | 20.94499 | 6800 ft | 281 kts | 85° |
| 2026-04-22 22:49 | 45.86187 | 20.97240 | 6095 ft | 276 kts | 71° |
| 2026-04-22 22:49 | 45.86867 | 20.99795 | 5394 ft | 274 kts | 65° |
| 2026-04-22 22:49 | 45.87599 | 21.02305 | 4693 ft | 273 kts | 70° |
| 2026-04-22 22:49 | 45.87862 | 21.04980 | 4231 ft | 267 kts | 90° |
| 2026-04-22 22:50 | 45.87527 | 21.07552 | 3900 ft | 258 kts | 107° |
| 2026-04-22 22:50 | 45.86933 | 21.09919 | 3563 ft | 248 kts | 107° |
| 2026-04-22 22:50 | 45.86366 | 21.12211 | 3239 ft | 235 kts | 107° |
| 2026-04-22 22:50 | 45.85843 | 21.14318 | 2923 ft | 215 kts | 107° |
| 2026-04-22 22:51 | 45.85356 | 21.16276 | 2669 ft | 201 kts | 107° |
| 2026-04-22 22:51 | 45.84903 | 21.18096 | 2390 ft | 188 kts | 107° |
| 2026-04-22 22:51 | 45.84483 | 21.19782 | 2134 ft | 173 kts | 107° |
| 2026-04-22 22:51 | 45.84092 | 21.21351 | 1904 ft | 162 kts | 107° |
| 2026-04-22 22:52 | 45.83722 | 21.22835 | 1689 ft | 156 kts | 107° |
| 2026-04-22 22:52 | 45.83358 | 21.24295 | 1472 ft | 154 kts | 108° |
| 2026-04-22 22:52 | 45.83000 | 21.25730 | 1266 ft | 152 kts | 108° |
| 2026-04-22 22:52 | 45.82644 | 21.27148 | 1055 ft | 150 kts | 109° |
| 2026-04-22 22:53 | 45.82292 | 21.28542 | 839 ft | 148 kts | 109° |
| 2026-04-22 22:53 | 45.81952 | 21.29930 | 643 ft | 147 kts | 109° |
| 2026-04-22 22:53 | 45.81608 | 21.31297 | 426 ft | 146 kts | 109° |
| 2026-04-22 22:53 | 45.81279 | 21.32598 | 353 ft | 113 kts | 110° |
| 2026-04-22 22:54 | 45.81074 | 21.33419 | 343 ft | 55 kts | 109° |
| 2026-04-22 22:54 | 45.80967 | 21.33840 | 353 ft | 44 kts | 108° |
| 2026-04-22 22:54 | 45.80883 | 21.34191 | 344 ft | 36 kts | 111° |
| 2026-04-22 22:54 | 45.80797 | 21.34524 | 340 ft | 27 kts | 109° |
| 2026-04-22 22:55 | 45.80766 | 21.34639 | 344 ft | 4 kts | 182° |
| 2026-04-22 22:55 | 45.80774 | 21.34607 | 337 ft | 7 kts | 297° |
| 2026-04-22 22:55 | 45.80856 | 21.34287 | 338 ft | 23 kts | 289° |
| 2026-04-22 22:56 | 45.80913 | 21.34066 | 350 ft | 25 kts | 290° |
| 2026-04-22 22:56 | 45.80973 | 21.33825 | 350 ft | 27 kts | 289° |
| 2026-04-22 22:56 | 45.81003 | 21.33614 | 348 ft | 15 kts | 242° |
| 2026-04-22 22:56 | 45.80906 | 21.33535 | 347 ft | 17 kts | 199° |
| 2026-04-22 22:57 | 45.80866 | 21.33412 | 342 ft | 15 kts | 284° |
| 2026-04-22 22:57 | 45.80904 | 21.33260 | 345 ft | 18 kts | 290° |
| 2026-04-22 22:57 | 45.80950 | 21.33079 | 345 ft | 21 kts | 290° |
| 2026-04-22 22:57 | 45.81002 | 21.32870 | 349 ft | 24 kts | 290° |
| 2026-04-22 22:58 | 45.81060 | 21.32642 | 348 ft | 22 kts | 292° |
| 2026-04-22 22:58 | 45.81090 | 21.32476 | 342 ft | 14 kts | 257° |
| 2026-04-22 22:58 | 45.81058 | 21.32373 | 344 ft | 8 kts | 276° |
| 2026-04-22 22:58 | 45.81083 | 21.32278 | 345 ft | 12 kts | 290° |
| 2026-04-22 22:59 | 45.81095 | 21.32231 | 343 ft | 2 kts | 289° |
| 2026-04-22 22:59 | 45.81085 | 21.32202 | 343 ft | 5 kts | 201° |
| 2026-04-22 22:59 | 45.81043 | 21.32182 | 345 ft | 7 kts | 200° |
| 2026-04-22 22:59 | 45.81039 | 21.32180 | 342 ft | 0 kts | 200° |